Time;durP1;ratioP1;P1;durP2;ratioP2;P2;SDS_P1;SDS_P2;PMS_P1;PMS_P2;Temp;Humidity;BMP_temperature;BMP_pressure;BME280_temperature;BME280_humidity;BME280_pressure;Samples;Min_cycle;Max_cycle;Signal;HPM_P1;HPM_P2
2023/01/19 00:00:09;;;;;;;;;2.00;1.00;;;;;4.49;75.64;100244.47;5003316;28;45442;-76
2023/01/19 00:02:35;;;;;;;;;6.25;6.00;;;;;4.50;75.82;100243.69;5008700;28;45466;-79
2023/01/19 00:05:02;;;;;;;;;1.00;0.25;;;;;4.10;75.85;100183.13;5005689;28;45519;-75
2023/01/19 00:07:32;;;;;;;;;1.00;0.00;;;;;4.46;75.38;100236.59;5001417;28;45565;-73
2023/01/19 00:09:58;;;;;;;;;2.75;1.00;;;;;4.35;76.25;100241.22;5000022;28;45427;-72
2023/01/19 00:12:24;;;;;;;;;1.50;1.00;;;;;4.38;75.89;100246.56;5029770;28;45408;-76
2023/01/19 00:14:49;;;;;;;;;0.75;0.75;;;;;4.44;76.35;100258.91;5000769;28;45300;-81
2023/01/19 00:17:15;;;;;;;;;0.50;0.50;;;;;4.43;76.04;100251.94;5001694;28;46026;-72
2023/01/19 00:19:40;;;;;;;;;0.75;0.25;;;;;4.45;76.08;100238.25;5002036;28;45321;-76
2023/01/19 00:22:06;;;;;;;;;0.25;0.25;;;;;4.48;76.52;100238.44;5001402;28;45311;-75
2023/01/19 00:24:32;;;;;;;;;1.00;1.00;;;;;4.48;76.11;100245.31;5028303;28;45550;-75
2023/01/19 00:27:00;;;;;;;;;0.50;0.00;;;;;4.50;76.50;100243.69;5001228;28;45592;-71
2023/01/19 00:29:28;;;;;;;;;0.50;0.00;;;;;4.56;75.95;100233.63;5000969;28;45462;-74
2023/01/19 00:31:53;;;;;;;;;1.00;0.00;;;;;4.60;75.80;100242.44;5006918;28;45416;-73
2023/01/19 00:34:19;;;;;;;;;0.00;0.00;;;;;4.56;75.64;100242.28;5013916;28;45313;-72
2023/01/19 00:36:44;;;;;;;;;1.00;1.00;;;;;4.61;75.87;100244.19;5007398;28;45736;-74
2023/01/19 00:39:10;;;;;;;;;0.00;0.00;;;;;4.56;75.57;100237.09;5011111;28;45773;-78
2023/01/19 00:44:19;;;;;;;;;0.00;0.00;;;;;4.58;75.24;100216.50;5008997;28;45533;-74
2023/01/19 00:46:45;;;;;;;;;0.00;0.00;;;;;4.53;75.19;100228.28;5007519;28;46164;-74
2023/01/19 00:49:11;;;;;;;;;0.00;0.00;;;;;4.47;75.07;100221.13;5006342;28;45530;-72
2023/01/19 00:51:37;;;;;;;;;0.00;0.00;;;;;4.44;75.39;100220.09;5007116;28;46140;-74
2023/01/19 00:54:03;;;;;;;;;1.00;0.00;;;;;4.34;75.48;100204.13;5013627;28;45515;-79
2023/01/19 00:56:32;;;;;;;;;0.00;0.00;;;;;4.33;75.91;100211.81;5012485;28;46326;-76
2023/01/19 00:58:58;;;;;;;;;0.00;0.00;;;;;4.29;76.37;100212.47;5011638;28;45541;-75
2023/01/19 01:01:24;;;;;;;;;0.00;0.00;;;;;4.32;76.17;100226.44;5006774;28;45491;-72
2023/01/19 01:03:49;;;;;;;;;0.00;0.00;;;;;4.36;76.39;100230.06;5018240;28;45796;-78
2023/01/19 01:06:15;;;;;;;;;0.00;0.00;;;;;4.38;76.44;100231.91;5012637;28;45771;-71
2023/01/19 01:08:40;;;;;;;;;0.00;0.00;;;;;4.31;76.38;100208.25;5012957;28;45391;-70
2023/01/19 01:11:06;;;;;;;;;0.00;0.00;;;;;4.45;76.84;100230.50;5011249;28;45355;-77
2023/01/19 01:13:31;;;;;;;;;0.00;0.00;;;;;4.51;76.29;100229.91;5007064;28;45225;-73
2023/01/19 01:15:56;;;;;;;;;0.00;0.00;;;;;4.53;75.90;100223.13;5009640;28;45686;-80
2023/01/19 01:18:23;;;;;;;;;0.00;0.00;;;;;4.60;75.75;100225.22;5014221;28;45487;-74
2023/01/19 01:20:49;;;;;;;;;0.00;0.00;;;;;4.64;76.01;100232.31;5010873;28;45542;-72
2023/01/19 01:23:14;;;;;;;;;0.00;0.00;;;;;4.45;75.93;100188.25;5009700;28;45584;-72
2023/01/19 01:25:41;;;;;;;;;0.00;0.00;;;;;4.65;75.84;100223.72;5012087;28;45958;-72
2023/01/19 01:28:07;;;;;;;;;0.00;0.00;;;;;4.52;75.42;100203.25;5004142;28;45462;-73
2023/01/19 01:30:34;;;;;;;;;0.75;0.00;;;;;4.67;75.57;100223.78;5007558;28;45486;-75
2023/01/19 01:33:00;;;;;;;;;0.00;0.00;;;;;4.57;75.38;100204.34;5008991;28;45394;-74
2023/01/19 01:35:26;;;;;;;;;0.00;0.00;;;;;4.72;75.19;100237.84;5013542;28;46546;-75
2023/01/19 01:37:52;;;;;;;;;0.00;0.00;;;;;4.74;75.30;100254.34;5013752;28;45634;-70
2023/01/19 01:40:18;;;;;;;;;0.00;0.00;;;;;4.77;75.31;100254.47;5010661;28;45591;-76
2023/01/19 01:42:44;;;;;;;;;0.00;0.00;;;;;4.78;75.34;100251.09;5014220;28;45486;-78
2023/01/19 01:45:37;;;;;;;;;0.00;0.00;;;;;4.77;75.26;100260.56;5008905;28;45983;-73
2023/01/19 01:48:25;;;;;;;;;0.00;0.00;;;;;4.78;75.54;100292.50;5006615;28;45314;-70
2023/01/19 01:53:46;;;;;;;;;0.00;0.00;;;;;4.50;75.14;100249.75;5016020;28;45388;-73
2023/01/19 01:56:18;;;;;;;;;0.00;0.00;;;;;4.80;75.67;100313.28;5008974;28;45505;-72
2023/01/19 01:58:44;;;;;;;;;0.00;0.00;;;;;4.44;76.14;100297.69;5005077;28;45581;-72
2023/01/19 02:03:56;;;;;;;;;0.00;0.00;;;;;4.54;75.88;100321.50;5002702;28;45491;-74
2023/01/19 02:06:22;;;;;;;;;0.00;0.00;;;;;4.16;76.54;100265.28;5010580;28;46278;-70
2023/01/19 02:14:37;;;;;;;;;0.00;0.00;;;;;4.20;76.17;100321.50;5004483;28;45724;-70
2023/01/19 02:17:04;;;;;;;;;1.00;0.00;;;;;3.89;75.99;100275.06;5009555;28;45683;-70
2023/01/19 02:19:41;;;;;;;;;0.00;0.00;;;;;4.03;77.06;100286.13;5004953;28;45478;-71
2023/01/19 02:22:19;;;;;;;;;0.00;0.00;;;;;4.24;76.87;100319.94;5000047;28;45785;-71
2023/01/19 02:24:45;;;;;;;;;0.00;0.00;;;;;4.28;76.69;100333.13;5012428;28;45496;-77
2023/01/19 02:27:11;;;;;;;;;0.00;0.00;;;;;4.35;76.09;100323.97;5006508;28;45533;-73
2023/01/19 02:29:37;;;;;;;;;0.00;0.00;;;;;4.41;76.46;100328.56;5015219;28;45533;-77
2023/01/19 02:32:04;;;;;;;;;0.00;0.00;;;;;4.45;75.86;100318.44;5007188;28;45550;-72
2023/01/19 02:34:31;;;;;;;;;0.00;0.00;;;;;4.46;75.75;100311.59;5007633;28;45765;-70
2023/01/19 02:37:05;;;;;;;;;0.00;0.00;;;;;4.48;76.17;100315.16;5008876;28;45605;-71
2023/01/19 02:39:56;;;;;;;;;0.00;0.00;;;;;4.47;75.93;100314.22;5013927;28;45582;-75
2023/01/19 02:42:48;;;;;;;;;0.00;0.00;;;;;4.50;76.14;100318.69;5009867;28;45425;-74
2023/01/19 02:45:18;;;;;;;;;0.00;0.00;;;;;4.49;76.03;100316.91;5003476;28;46150;-72
2023/01/19 02:47:48;;;;;;;;;0.00;0.00;;;;;4.46;75.70;100335.75;5007061;28;45350;-71
2023/01/19 02:50:35;;;;;;;;;0.00;0.00;;;;;4.46;75.79;100334.88;5021327;28;45289;-75
2023/01/19 02:53:11;;;;;;;;;0.00;0.00;;;;;4.44;76.25;100334.78;5007849;28;45593;-74
2023/01/19 02:55:40;;;;;;;;;0.00;0.00;;;;;4.44;75.51;100333.91;5031306;28;45489;-71
2023/01/19 02:58:19;;;;;;;;;0.00;0.00;;;;;4.42;75.85;100333.81;5018101;28;46087;-73
2023/01/19 03:01:28;;;;;;;;;0.00;0.00;;;;;4.38;75.25;100321.56;5011663;28;45534;-76
2023/01/19 03:04:41;;;;;;;;;0.00;0.00;;;;;4.33;75.53;100323.00;5009096;28;45362;-76
2023/01/19 03:07:46;;;;;;;;;0.00;0.00;;;;;4.24;75.81;100318.25;5008005;28;45376;-74
2023/01/19 03:10:39;;;;;;;;;0.00;0.00;;;;;4.19;76.06;100336.09;5009883;28;46076;-71
2023/01/19 03:13:18;;;;;;;;;0.00;0.00;;;;;4.04;76.73;100299.13;5006030;28;45399;-72
2023/01/19 03:15:49;;;;;;;;;0.00;0.00;;;;;4.12;76.05;100309.88;5006572;28;45441;-70
2023/01/19 03:18:19;;;;;;;;;0.00;0.00;;;;;4.23;75.94;100323.34;5005001;28;45435;-72
2023/01/19 03:20:48;;;;;;;;;0.00;0.00;;;;;4.25;76.38;100329.47;5009898;28;46442;-74
2023/01/19 03:23:15;;;;;;;;;0.00;0.00;;;;;4.25;75.99;100322.59;5010212;28;45515;-75
2023/01/19 03:25:44;;;;;;;;;0.00;0.00;;;;;4.27;76.05;100313.22;5006628;28;45463;-71
2023/01/19 03:28:13;;;;;;;;;0.00;0.00;;;;;4.27;76.05;100307.16;5007040;28;45566;-74
2023/01/19 03:30:45;;;;;;;;;0.00;0.00;;;;;4.07;75.83;100264.78;5011323;28;45498;-74
2023/01/19 03:33:19;;;;;;;;;0.00;0.00;;;;;4.29;75.79;100303.84;5007058;28;45609;-71
2023/01/19 03:35:50;;;;;;;;;0.00;0.00;;;;;4.19;76.24;100273.16;5006101;28;45554;-78
2023/01/19 03:38:23;;;;;;;;;0.00;0.00;;;;;4.11;76.20;100258.97;5008378;28;45424;-70
2023/01/19 03:40:51;;;;;;;;;0.00;0.00;;;;;4.34;76.27;100288.59;5004313;28;45427;-71
2023/01/19 03:43:17;;;;;;;;;0.50;0.00;;;;;4.28;75.71;100278.81;5009651;28;45488;-70
2023/01/19 03:45:44;;;;;;;;;0.00;0.00;;;;;4.30;75.96;100284.94;5005423;28;45495;-70
2023/01/19 03:48:11;;;;;;;;;0.00;0.00;;;;;4.27;75.63;100279.59;5008913;28;45476;-71
2023/01/19 03:50:36;;;;;;;;;0.00;0.00;;;;;4.15;75.97;100260.91;5006745;28;45563;-71
2023/01/19 03:53:11;;;;;;;;;0.00;0.00;;;;;4.26;75.79;100277.84;5006643;28;45596;-74
2023/01/19 03:55:41;;;;;;;;;0.00;0.00;;;;;4.34;76.27;100279.13;5010557;28;45395;-73
2023/01/19 03:58:06;;;;;;;;;0.00;0.00;;;;;4.35;75.75;100254.13;5008583;28;45447;-71
2023/01/19 04:00:32;;;;;;;;;0.00;0.00;;;;;4.50;75.94;100254.03;5007279;28;46323;-74
2023/01/19 04:02:58;;;;;;;;;0.00;0.00;;;;;4.55;75.46;100256.00;5007143;28;45521;-71
2023/01/19 04:05:25;;;;;;;;;0.00;0.00;;;;;4.71;75.23;100257.66;5010605;28;45567;-72
2023/01/19 04:07:51;;;;;;;;;0.00;0.00;;;;;4.59;75.04;100223.41;5008664;28;45423;-74
2023/01/19 04:10:18;;;;;;;;;0.00;0.00;;;;;4.84;74.88;100245.31;5011288;28;45892;-70
2023/01/19 04:12:44;;;;;;;;;0.00;0.00;;;;;4.89;74.83;100241.25;5009952;28;45670;-71
2023/01/19 04:15:10;;;;;;;;;0.00;0.00;;;;;4.73;74.61;100204.25;5010175;28;45582;-71
2023/01/19 04:17:35;;;;;;;;;0.00;0.00;;;;;4.85;74.51;100219.50;5010035;28;46475;-71
2023/01/19 04:20:01;;;;;;;;;0.00;0.00;;;;;5.04;74.56;100259.22;5008340;28;45651;-74
2023/01/19 04:22:27;;;;;;;;;0.50;0.00;;;;;4.87;74.60;100228.22;5005312;28;45400;-72
2023/01/19 04:24:54;;;;;;;;;0.00;0.00;;;;;5.05;74.57;100273.91;5009906;28;45622;-70
2023/01/19 04:27:20;;;;;;;;;0.00;0.00;;;;;5.03;75.26;100322.16;5006334;28;45281;-72
2023/01/19 04:29:45;;;;;;;;;0.00;0.00;;;;;4.78;75.16;100315.78;5029821;28;47456;-76
2023/01/19 04:32:13;;;;;;;;;0.00;0.00;;;;;4.62;73.52;100337.41;5008057;28;45250;-81
2023/01/19 04:34:38;;;;;;;;;0.00;0.00;;;;;4.50;72.86;100329.94;5011841;28;45543;-72
2023/01/19 04:37:04;;;;;;;;;0.00;0.00;;;;;4.45;73.04;100330.50;5004593;28;45511;-73
2023/01/19 04:39:30;;;;;;;;;0.00;0.00;;;;;4.56;73.21;100363.88;5007499;28;45470;-78
2023/01/19 04:41:56;;;;;;;;;0.00;0.00;;;;;4.43;72.76;100361.44;5004473;28;45403;-80
2023/01/19 04:44:22;;;;;;;;;12.00;8.75;;;;;4.36;73.32;100354.19;5003238;28;45569;-75
2023/01/19 04:46:48;;;;;;;;;13.50;10.00;;;;;4.39;73.67;100369.88;5008613;28;45431;-76
2023/01/19 04:49:14;;;;;;;;;47.50;38.25;;;;;4.37;74.30;100369.78;5007093;28;47632;-80
2023/01/19 04:51:39;;;;;;;;;8.25;6.75;;;;;4.41;73.96;100377.72;5009910;28;45799;-75
2023/01/19 04:54:07;;;;;;;;;2.50;2.00;;;;;4.43;74.34;100392.50;5011471;28;45418;-77
2023/01/19 04:56:33;;;;;;;;;4.50;4.00;;;;;4.24;73.73;100341.53;5008316;28;45458;-70
2023/01/19 04:59:01;;;;;;;;;0.00;0.00;;;;;4.33;73.44;100348.84;5006535;28;45489;-76
2023/01/19 05:01:27;;;;;;;;;1.00;1.00;;;;;4.26;73.54;100375.19;5000656;28;45407;-78
2023/01/19 05:03:52;;;;;;;;;1.50;1.00;;;;;4.12;73.84;100357.28;5013411;28;45492;-70
2023/01/19 05:06:18;;;;;;;;;0.00;0.00;;;;;4.06;73.63;100304.34;5009275;28;45455;-76
2023/01/19 05:08:44;;;;;;;;;0.00;0.00;;;;;4.05;73.37;100307.75;5010410;28;45998;-74
2023/01/19 05:11:09;;;;;;;;;0.00;0.00;;;;;4.03;73.55;100337.81;4995654;28;45763;-72
2023/01/19 05:13:35;;;;;;;;;0.00;0.00;;;;;3.90;73.54;100325.91;5012240;28;45372;-75
2023/01/19 05:16:01;;;;;;;;;0.00;0.00;;;;;3.75;74.04;100311.38;5014970;28;45487;-71
2023/01/19 05:18:26;;;;;;;;;0.50;0.00;;;;;3.83;74.35;100323.84;5014561;28;47268;-74
2023/01/19 05:20:52;;;;;;;;;0.00;0.00;;;;;3.58;73.73;100286.34;5015382;28;45843;-71
2023/01/19 05:23:17;;;;;;;;;0.00;0.00;;;;;3.65;73.97;100316.88;5015964;28;45478;-70
2023/01/19 05:25:43;;;;;;;;;0.00;0.00;;;;;3.49;74.08;100298.78;5013082;28;45360;-71
2023/01/19 05:28:09;;;;;;;;;0.00;0.00;;;;;3.42;73.68;100292.38;5012429;28;45433;-70
2023/01/19 05:30:35;;;;;;;;;0.00;0.00;;;;;3.45;73.87;100315.78;5014333;28;45406;-73
2023/01/19 05:33:00;;;;;;;;;0.00;0.00;;;;;3.38;74.80;100316.25;5013746;28;45598;-79
2023/01/19 05:35:26;;;;;;;;;0.00;0.00;;;;;3.36;74.63;100308.44;5013015;28;45434;-79
2023/01/19 05:37:52;;;;;;;;;0.00;0.00;;;;;3.24;74.93;100275.88;5012761;28;45483;-78
2023/01/19 05:40:17;;;;;;;;;0.00;0.00;;;;;3.45;75.07;100309.75;5017508;28;45391;-73
2023/01/19 05:42:43;;;;;;;;;0.00;0.00;;;;;3.50;75.28;100316.03;5015783;28;45546;-73
2023/01/19 05:45:09;;;;;;;;;0.00;0.00;;;;;3.55;74.96;100314.59;5018268;28;45515;-72
2023/01/19 05:47:34;;;;;;;;;0.00;0.00;;;;;3.62;75.11;100308.06;5017969;28;45338;-71
2023/01/19 05:50:00;;;;;;;;;0.00;0.00;;;;;3.67;74.91;100314.38;5016413;28;45385;-74
2023/01/19 05:52:25;;;;;;;;;0.00;0.00;;;;;3.69;74.57;100295.56;5016456;28;45486;-69
2023/01/19 05:54:51;;;;;;;;;0.00;0.00;;;;;3.74;74.68;100301.88;5022698;28;45477;-73
2023/01/19 05:57:17;;;;;;;;;0.00;0.00;;;;;3.73;74.57;100289.75;5015789;28;45518;-71
2023/01/19 05:59:43;;;;;;;;;0.00;0.00;;;;;3.56;74.82;100267.28;5017804;28;45493;-71
2023/01/19 06:02:09;;;;;;;;;0.00;0.00;;;;;3.73;75.15;100269.06;5017933;28;45514;-71
2023/01/19 06:04:34;;;;;;;;;0.00;0.00;;;;;3.64;74.68;100247.94;5018002;28;45580;-74
2023/01/19 06:07:01;;;;;;;;;0.00;0.00;;;;;3.78;75.05;100282.25;5015368;28;45766;-73
2023/01/19 06:09:26;;;;;;;;;0.00;0.00;;;;;3.79;75.00;100282.31;5017284;28;45612;-73
2023/01/19 06:11:54;;;;;;;;;0.00;0.00;;;;;3.82;75.05;100285.88;5013922;28;45502;-74
2023/01/19 06:14:20;;;;;;;;;0.00;0.00;;;;;3.67;74.76;100248.09;5017340;28;45459;-72
2023/01/19 06:16:45;;;;;;;;;0.00;0.00;;;;;3.93;75.26;100282.16;5016946;28;46132;-71
2023/01/19 06:19:11;;;;;;;;;0.00;0.00;;;;;4.02;74.64;100287.81;5016900;28;45445;-74
2023/01/19 06:21:37;;;;;;;;;0.00;0.00;;;;;3.99;75.34;100296.28;5017163;28;45463;-70
2023/01/19 06:24:03;;;;;;;;;0.00;0.00;;;;;4.12;75.05;100315.03;5016090;28;45416;-72
2023/01/19 06:26:28;;;;;;;;;0.00;0.00;;;;;4.17;75.11;100329.06;5016166;28;46064;-68
2023/01/19 06:28:54;;;;;;;;;0.00;0.00;;;;;4.17;75.22;100319.63;5016714;28;45402;-69
2023/01/19 06:31:20;;;;;;;;;0.00;0.00;;;;;4.16;75.58;100319.56;5015164;28;45437;-78
2023/01/19 06:33:46;;;;;;;;;0.00;0.00;;;;;4.27;75.53;100322.69;5017149;28;45510;-72
2023/01/19 06:36:12;;;;;;;;;0.00;0.00;;;;;4.24;74.94;100322.50;5016724;28;45565;-67
2023/01/19 06:38:37;;;;;;;;;0.00;0.00;;;;;4.29;75.86;100334.00;5017114;28;45757;-75
2023/01/19 06:41:03;;;;;;;;;0.00;0.00;;;;;4.14;75.78;100298.78;5013772;28;45586;-74
2023/01/19 06:43:30;;;;;;;;;0.00;0.00;;;;;4.35;75.57;100326.56;5016252;28;45888;-70
2023/01/19 06:45:56;;;;;;;;;0.00;0.00;;;;;4.38;75.95;100324.13;5016736;28;45699;-72
2023/01/19 06:48:22;;;;;;;;;0.00;0.00;;;;;4.25;76.14;100301.03;5016841;28;45644;-71
2023/01/19 06:50:48;;;;;;;;;0.00;0.00;;;;;4.41;75.99;100313.94;5015493;28;46063;-73
2023/01/19 06:53:15;;;;;;;;;0.00;0.00;;;;;4.44;75.93;100314.09;5017246;28;45828;-73
2023/01/19 06:55:42;;;;;;;;;0.00;0.00;;;;;4.41;75.20;100301.00;5016582;28;45541;-78
2023/01/19 06:58:09;;;;;;;;;0.00;0.00;;;;;4.43;74.05;100312.31;5016457;28;45479;-79
2023/01/19 07:00:35;;;;;;;;;0.00;0.00;;;;;4.24;74.30;100256.19;5016638;28;45498;-79
2023/01/19 07:03:01;;;;;;;;;0.00;0.00;;;;;4.34;74.67;100312.75;5017335;28;45453;-79
2023/01/19 07:05:27;;;;;;;;;0.00;0.00;;;;;4.36;74.63;100323.16;5017513;28;45473;-71
2023/01/19 07:07:54;;;;;;;;;0.00;0.00;;;;;4.38;74.63;100331.91;5017009;28;45505;-72
2023/01/19 07:10:21;;;;;;;;;0.00;0.00;;;;;4.38;74.01;100324.13;5017797;28;45454;-72
2023/01/19 07:12:46;;;;;;;;;0.00;0.00;;;;;4.11;73.85;100280.53;5017645;28;45399;-73
2023/01/19 07:15:18;;;;;;;;;0.00;0.00;;;;;4.39;74.35;100320.72;5017355;28;46370;-72
2023/01/19 07:17:44;;;;;;;;;0.00;0.00;;;;;4.34;74.37;100319.63;5014426;28;45411;-72
2023/01/19 07:20:13;;;;;;;;;0.00;0.00;;;;;4.31;74.85;100341.00;5016093;28;45714;-70
2023/01/19 07:22:44;;;;;;;;;0.00;0.00;;;;;4.28;74.41;100352.94;5014135;28;46231;-71
2023/01/19 07:25:10;;;;;;;;;0.00;0.00;;;;;4.31;75.26;100363.41;5015783;28;46385;-74
2023/01/19 07:27:35;;;;;;;;;0.00;0.00;;;;;4.30;75.11;100333.19;5000678;28;45381;-73
2023/01/19 07:30:01;;;;;;;;;0.00;0.00;;;;;4.22;76.13;100298.28;5017178;28;45593;-71
2023/01/19 07:32:27;;;;;;;;;0.00;0.00;;;;;4.28;76.20;100281.41;5013742;28;45412;-75
2023/01/19 07:34:53;;;;;;;;;0.00;0.00;;;;;4.04;76.69;100265.53;5016364;28;46268;-81
2023/01/19 07:37:18;;;;;;;;;0.25;0.00;;;;;4.27;76.70;100314.94;5017164;28;45435;-74
2023/01/19 07:39:44;;;;;;;;;0.75;0.00;;;;;4.28;76.68;100324.47;5017462;28;45415;-74
2023/01/19 07:42:09;;;;;;;;;1.75;1.75;;;;;4.26;76.71;100342.50;5017601;28;45305;-72
2023/01/19 07:44:35;;;;;;;;;9.25;9.00;;;;;4.26;77.34;100342.50;5017812;28;46041;-76
2023/01/19 07:47:02;;;;;;;;;7.75;5.50;;;;;4.03;77.26;100309.38;5017704;28;45474;-76
2023/01/19 07:49:27;;;;;;;;;1.00;1.00;;;;;4.26;77.14;100339.91;5016635;28;45191;-72
2023/01/19 07:51:55;;;;;;;;;0.50;0.00;;;;;4.18;77.17;100324.00;5017753;28;45431;-74
2023/01/19 07:54:21;;;;;;;;;2.00;1.50;;;;;4.28;77.35;100327.06;5015100;28;45840;-71
2023/01/19 07:56:46;;;;;;;;;1.00;0.50;;;;;4.29;76.61;100324.53;5016433;28;45404;-73
2023/01/19 07:59:12;;;;;;;;;2.50;2.00;;;;;4.21;76.58;100302.56;5007526;28;45400;-79
2023/01/19 08:01:38;;;;;;;;;6.00;5.00;;;;;4.32;77.08;100310.91;5010583;28;45487;-80
2023/01/19 08:04:04;;;;;;;;;5.50;5.00;;;;;4.11;76.72;100271.88;5016051;28;45651;-74
2023/01/19 08:06:34;;;;;;;;;9.50;6.25;;;;;4.37;76.17;100310.28;5016874;28;45502;-72
2023/01/19 08:08:59;;;;;;;;;2.25;2.00;;;;;4.38;76.82;100324.13;5015577;28;45459;-71
2023/01/19 08:11:25;;;;;;;;;0.25;0.25;;;;;4.37;76.58;100336.16;5014408;28;46245;-70
2023/01/19 08:13:51;;;;;;;;;0.00;0.00;;;;;4.19;76.33;100286.09;5012835;28;46102;-78
2023/01/19 08:16:16;;;;;;;;;1.00;1.00;;;;;4.41;76.71;100318.22;5013170;28;45513;-73
2023/01/19 08:18:42;;;;;;;;;18.50;16.25;;;;;4.38;76.52;100317.25;5012803;28;45448;-74
2023/01/19 08:21:08;;;;;;;;;23.75;18.00;;;;;4.44;76.02;100319.28;5015428;28;45443;-76
2023/01/19 08:23:33;;;;;;;;;28.00;25.75;;;;;4.38;75.71;100301.75;5013168;28;45642;-76
2023/01/19 08:25:59;;;;;;;;;29.25;25.25;;;;;4.49;75.63;100304.84;5015007;28;45853;-73
2023/01/19 08:28:25;;;;;;;;;18.25;13.25;;;;;4.50;75.97;100311.81;5013928;28;45467;-70
2023/01/19 08:30:54;;;;;;;;;14.50;9.75;;;;;4.55;75.57;100302.56;5016227;28;45375;-70
2023/01/19 08:33:21;;;;;;;;;14.00;10.75;;;;;4.57;75.52;100302.66;5015661;28;46232;-72
2023/01/19 08:35:50;;;;;;;;;18.75;15.00;;;;;4.61;74.99;100308.88;5016160;28;45496;-72
2023/01/19 08:38:16;;;;;;;;;18.75;15.25;;;;;4.64;75.11;100316.81;5015996;28;45815;-70
2023/01/19 08:40:42;;;;;;;;;2.25;2.00;;;;;4.64;75.06;100322.88;5003528;28;45520;-70
2023/01/19 08:43:14;;;;;;;;;16.00;12.75;;;;;4.69;75.13;100333.44;5012718;28;45447;-79
2023/01/19 08:45:47;;;;;;;;;1.25;1.00;;;;;4.36;74.91;100264.56;5008949;28;45430;-75
2023/01/19 08:48:15;;;;;;;;;14.25;13.00;;;;;4.78;74.85;100316.66;5012159;28;45428;-72
2023/01/19 08:50:41;;;;;;;;;13.00;10.75;;;;;4.84;74.31;100302.25;5013922;28;45486;-72
2023/01/19 08:53:07;;;;;;;;;14.25;11.25;;;;;4.89;74.66;100313.72;5012339;28;45652;-73
2023/01/19 08:55:35;;;;;;;;;10.00;10.00;;;;;4.87;74.84;100308.44;5014885;28;45569;-69
2023/01/19 08:58:02;;;;;;;;;14.75;12.75;;;;;4.85;75.16;100298.84;5013493;28;45417;-72
2023/01/19 09:00:30;;;;;;;;;16.25;14.00;;;;;4.84;75.31;100302.25;5011613;28;45603;-74
2023/01/19 09:02:56;;;;;;;;;10.00;10.00;;;;;4.68;75.13;100262.69;5013160;28;47136;-73
2023/01/19 09:05:22;;;;;;;;;18.75;16.75;;;;;4.90;75.25;100298.25;5014308;28;45312;-69
2023/01/19 09:07:48;;;;;;;;;26.00;21.00;;;;;4.78;75.09;100277.84;5015134;28;45459;-71
2023/01/19 09:10:15;;;;;;;;;21.25;19.50;;;;;4.98;75.34;100291.75;5013073;28;45697;-73
2023/01/19 09:12:42;;;;;;;;;39.75;36.25;;;;;5.02;75.57;100281.56;5013436;28;46809;-71
2023/01/19 09:15:09;;;;;;;;;10.00;9.00;;;;;5.09;75.31;100281.00;5017954;28;45455;-70
2023/01/19 09:17:35;;;;;;;;;18.50;14.50;;;;;5.15;75.12;100283.91;5018438;28;45475;-70
2023/01/19 09:20:01;;;;;;;;;50.50;41.25;;;;;5.20;75.06;100278.94;5016024;28;45526;-73
2023/01/19 09:22:28;;;;;;;;;22.50;20.00;;;;;5.20;74.16;100264.28;5014941;28;45403;-71
2023/01/19 09:24:53;;;;;;;;;36.75;27.50;;;;;5.00;74.17;100229.69;5018100;28;45429;-70
2023/01/19 09:27:19;;;;;;;;;6.75;5.75;;;;;5.08;74.24;100246.47;5018710;28;45379;-73
2023/01/19 09:29:51;;;;;;;;;10.75;6.75;;;;;5.33;74.16;100282.19;5017788;28;45372;-74
2023/01/19 09:32:18;;;;;;;;;15.00;14.00;;;;;5.17;74.33;100257.28;5003784;28;46217;-70
2023/01/19 09:34:44;;;;;;;;;5.00;1.00;;;;;5.29;74.37;100264.75;5016912;28;45523;-72
2023/01/19 09:37:10;;;;;;;;;6.00;4.00;;;;;5.47;74.57;100279.31;5018669;28;45664;-73
2023/01/19 09:39:35;;;;;;;;;33.00;24.25;;;;;5.50;74.42;100287.25;5018509;28;45486;-70
2023/01/19 09:42:20;;;;;;;;;20.00;19.00;;;;;5.54;74.26;100278.81;5018668;28;45436;-71
2023/01/19 09:44:49;;;;;;;;;48.25;37.25;;;;;5.42;73.92;100247.16;5030382;28;45344;-72
2023/01/19 09:47:20;;;;;;;;;26.00;22.75;;;;;5.73;73.67;100285.69;5014963;28;45581;-72
2023/01/19 09:49:53;;;;;;;;;35.50;31.00;;;;;5.80;73.35;100268.72;5003381;28;45577;-70
2023/01/19 09:52:19;;;;;;;;;16.75;13.75;;;;;5.84;73.03;100268.94;5017944;28;45562;-71
2023/01/19 09:54:55;;;;;;;;;23.25;18.50;;;;;5.78;73.14;100242.75;5018243;28;45510;-70
2023/01/19 09:57:26;;;;;;;;;23.50;21.75;;;;;5.92;73.25;100267.56;5017789;28;45663;-70
2023/01/19 09:59:58;;;;;;;;;8.50;7.50;;;;;6.01;73.37;100268.81;5018465;28;45437;-70
2023/01/19 10:02:42;;;;;;;;;24.75;21.50;;;;;5.95;73.41;100243.53;5018490;28;46558;-71
2023/01/19 10:05:23;;;;;;;;;19.00;15.50;;;;;6.18;72.76;100270.44;5018278;28;45537;-70
2023/01/19 10:08:22;;;;;;;;;10.75;8.25;;;;;6.25;73.05;100269.00;5018307;28;45479;-72
2023/01/19 10:10:53;;;;;;;;;7.25;6.00;;;;;6.35;72.93;100263.41;5016821;28;45418;-70
2023/01/19 10:13:19;;;;;;;;;6.25;6.25;;;;;6.42;71.96;100264.53;5017311;28;46250;-70
2023/01/19 10:16:07;;;;;;;;;2.00;2.00;;;;;6.46;72.10;100253.44;5017990;28;45511;-70
2023/01/19 10:18:44;;;;;;;;;5.00;3.50;;;;;6.53;71.88;100261.56;5017752;28;45529;-74
2023/01/19 10:21:16;;;;;;;;;2.75;1.00;;;;;6.60;72.25;100265.28;5017701;28;45543;-71
2023/01/19 10:24:00;;;;;;;;;2.25;2.00;;;;;6.69;72.01;100260.47;5017869;28;46375;-74
2023/01/19 10:26:35;;;;;;;;;1.50;1.50;;;;;6.76;71.50;100267.72;5015703;28;45434;-73
2023/01/19 10:29:06;;;;;;;;;2.00;2.00;;;;;6.80;71.75;100252.25;5004267;28;45519;-73
2023/01/19 10:31:38;;;;;;;;;1.00;1.00;;;;;6.83;71.23;100235.06;5018335;28;45244;-73
2023/01/19 10:34:17;;;;;;;;;0.00;0.00;;;;;6.85;70.94;100220.44;5017462;28;45300;-73
2023/01/19 10:36:45;;;;;;;;;1.00;1.00;;;;;6.91;70.92;100225.00;5018049;28;45380;-70
2023/01/19 10:39:16;;;;;;;;;0.25;0.00;;;;;6.95;70.49;100230.38;5018357;28;45347;-70
2023/01/19 10:41:47;;;;;;;;;0.00;0.00;;;;;7.03;70.64;100225.47;5018876;28;45244;-71
2023/01/19 10:44:24;;;;;;;;;2.25;1.75;;;;;7.06;70.32;100211.72;5018632;28;46190;-73
2023/01/19 10:46:51;;;;;;;;;9.25;8.00;;;;;7.12;70.30;100207.66;5018329;28;45326;-71
2023/01/19 10:49:27;;;;;;;;;13.75;13.00;;;;;7.16;69.80;100195.66;5018582;28;45201;-75
2023/01/19 10:51:55;;;;;;;;;9.25;9.25;;;;;7.18;69.18;100191.41;5018909;28;45382;-72
2023/01/19 10:54:22;;;;;;;;;2.25;2.00;;;;;7.21;69.54;100188.06;5018545;28;45437;-70
2023/01/19 10:57:06;;;;;;;;;3.50;3.50;;;;;7.11;69.77;100160.84;5017517;28;45414;-70
2023/01/19 10:59:43;;;;;;;;;3.50;3.50;;;;;7.39;68.97;100173.13;5017603;28;45387;-72
2023/01/19 11:02:17;;;;;;;;;0.00;0.00;;;;;7.50;68.66;100169.22;5017053;28;45537;-70
2023/01/19 11:04:44;;;;;;;;;0.00;0.00;;;;;7.57;68.11;100166.00;5017477;28;45531;-74
2023/01/19 11:07:33;;;;;;;;;0.00;0.00;;;;;7.64;67.60;100155.81;5017800;28;46049;-70
2023/01/19 11:10:20;;;;;;;;;0.00;0.00;;;;;7.66;67.86;100149.84;5018062;28;45442;-73
2023/01/19 11:13:11;;;;;;;;;2.00;2.00;;;;;7.72;67.92;100144.88;5018886;28;45337;-70
2023/01/19 11:16:03;;;;;;;;;1.00;1.00;;;;;7.76;67.57;100136.34;5018225;28;45541;-70
2023/01/19 11:18:30;;;;;;;;;7.25;7.25;;;;;7.76;67.48;100128.53;5017969;28;45614;-73
2023/01/19 11:21:01;;;;;;;;;8.50;8.50;;;;;7.74;67.17;100119.81;5017299;28;45504;-72
2023/01/19 11:23:28;;;;;;;;;0.50;0.50;;;;;7.81;66.80;100122.63;5017089;28;45331;-77
2023/01/19 11:25:57;;;;;;;;;15.25;11.25;;;;;7.87;66.42;100104.63;5016678;28;45655;-72
2023/01/19 11:28:33;;;;;;;;;11.75;8.75;;;;;7.91;66.81;100094.34;5017056;28;45623;-71
2023/01/19 11:31:01;;;;;;;;;1.00;0.00;;;;;7.99;66.56;100075.53;5017550;28;45515;-75
2023/01/19 11:33:41;;;;;;;;;3.00;3.00;;;;;8.05;66.45;100074.00;5017054;28;45369;-70
2023/01/19 11:36:17;;;;;;;;;2.00;2.00;;;;;8.10;65.94;100064.66;5016622;28;46317;-70
2023/01/19 11:38:49;;;;;;;;;1.50;1.00;;;;;8.10;65.83;100043.84;5017250;28;45451;-72
2023/01/19 11:41:33;;;;;;;;;3.50;3.25;;;;;8.21;66.29;100048.50;5016791;28;45633;-76
2023/01/19 11:44:43;;;;;;;;;3.00;2.25;;;;;8.32;66.11;100042.78;5016486;28;45678;-78
2023/01/19 11:47:20;;;;;;;;;9.50;9.25;;;;;8.44;65.17;100026.69;5016174;28;45410;-71
2023/01/19 11:49:55;;;;;;;;;7.00;7.00;;;;;8.29;65.10;99981.94;5016887;28;45591;-73
2023/01/19 11:52:30;;;;;;;;;2.00;2.00;;;;;8.55;64.99;100004.47;5017128;28;45616;-77
2023/01/19 11:55:13;;;;;;;;;8.00;7.00;;;;;8.66;65.41;100003.91;5016850;28;45462;-74